Time;durP1;ratioP1;P1;durP2;ratioP2;P2;SDS_P1;SDS_P2;PMS_P1;PMS_P2;Temp;Humidity;BMP_temperature;BMP_pressure;BME280_temperature;BME280_humidity;BME280_pressure;Samples;Min_cycle;Max_cycle;Signal;HPM_P1;HPM_P2
2022/08/14 10:23:44;;;;;;;9.32;6.50;;;;;;;28.91;34.38;100889.09;5152536;27;20373;-81
2022/08/14 10:26:15;;;;;;;8.07;6.30;;;;;;;29.06;33.47;100895.31;5108332;28;20031;-82
2022/08/14 10:28:47;;;;;;;8.40;6.40;;;;;;;29.11;34.13;100883.56;5130726;28;20043;-77
2022/08/14 10:31:32;;;;;;;8.20;6.22;;;;;;;29.05;34.06;100883.88;5130357;28;20015;-78
2022/08/14 10:34:00;;;;;;;8.68;6.40;;;;;;;28.99;33.78;100884.22;5130389;28;20031;-82
2022/08/14 10:36:32;;;;;;;8.32;6.15;;;;;;;28.96;34.23;100875.59;5130776;28;20050;-85
2022/08/14 10:39:00;;;;;;;10.60;6.32;;;;;;;29.06;34.18;100876.78;5135691;28;20034;-81
2022/08/14 10:41:38;;;;;;;7.72;6.47;;;;;;;29.10;33.39;100865.94;5136313;28;20043;-81
2022/08/14 10:44:15;;;;;;;8.05;6.55;;;;;;;29.06;33.61;100872.31;5138949;28;20076;-82
2022/08/14 10:47:09;;;;;;;9.45;6.30;;;;;;;29.16;33.19;100871.81;5127469;28;20024;-83
2022/08/14 10:49:56;;;;;;;8.43;6.70;;;;;;;28.93;33.62;100869.53;5113021;28;20030;-81
2022/08/14 10:52:24;;;;;;;8.02;5.82;;;;;;;28.90;33.37;100869.72;5111639;28;20035;-81
2022/08/14 10:54:51;;;;;;;6.95;5.97;;;;;;;28.99;32.82;100857.72;5111017;28;20031;-81
2022/08/14 10:57:23;;;;;;;6.68;5.40;;;;;;;29.10;32.06;100862.44;5114206;28;20467;-81
2022/08/14 10:59:59;;;;;;;6.10;5.50;;;;;;;29.07;31.62;100847.56;5114547;28;20026;-81
2022/08/14 11:02:28;;;;;;;6.30;4.85;;;;;;;29.10;31.01;100850.03;5096864;28;20379;-81
2022/08/14 11:05:06;;;;;;;8.43;5.32;;;;;;;29.09;31.41;100850.13;5110152;28;20114;-81
2022/08/14 11:07:34;;;;;;;6.43;4.97;;;;;;;28.98;31.85;100847.22;5109755;28;20030;-83
2022/08/14 11:10:04;;;;;;;8.73;5.30;;;;;;;29.00;31.23;100847.97;5109746;28;20179;-83
2022/08/14 11:12:46;;;;;;;8.27;4.80;;;;;;;29.21;30.67;100837.97;5109539;28;20114;-83
2022/08/14 11:15:18;;;;;;;5.15;4.60;;;;;;;29.36;29.63;100845.03;5109174;28;20379;-81
2022/08/14 11:17:48;;;;;;;6.50;4.20;;;;;;;29.32;29.02;100851.44;5109149;28;20102;-81
2022/08/14 11:20:16;;;;;;;10.52;4.53;;;;;;;29.36;29.00;100846.81;5108970;28;20475;-82
2022/08/14 11:22:42;;;;;;;6.13;4.75;;;;;;;29.24;28.96;100843.06;5102472;28;20139;-80
2022/08/14 11:25:12;;;;;;;6.05;4.78;;;;;;;29.20;29.76;100836.25;5095479;28;20451;-81
2022/08/14 11:27:43;;;;;;;7.60;5.05;;;;;;;29.26;30.87;100836.75;5095139;28;20035;-80
2022/08/14 11:30:14;;;;;;;6.78;5.30;;;;;;;29.34;31.17;100833.66;5078479;28;20024;-83
2022/08/14 11:32:43;;;;;;;6.93;5.28;;;;;;;29.41;30.79;100839.44;5096264;28;20483;-84
2022/08/14 11:35:14;;;;;;;6.22;5.00;;;;;;;29.33;30.90;100831.94;5096548;28;20024;-84
2022/08/14 11:38:01;;;;;;;6.82;5.38;;;;;;;29.49;30.48;100826.59;5079135;28;20111;-86
2022/08/14 11:40:33;;;;;;;7.80;5.10;;;;;;;29.51;30.97;100830.00;5095582;28;20357;-86
2022/08/14 11:43:00;;;;;;;7.88;5.07;;;;;;;29.48;30.36;100828.34;5095427;28;20020;-87
2022/08/14 11:45:31;;;;;;;6.07;5.10;;;;;;;29.49;30.41;100827.44;5095468;28;20035;-87
2022/08/14 11:47:57;;;;;;;5.82;5.22;;;;;;;29.50;30.88;100829.13;5095532;28;20050;-87
2022/08/14 11:50:27;;;;;;;7.60;4.95;;;;;;;29.52;31.16;100823.72;5095705;28;20040;-87
2022/08/14 11:52:54;;;;;;;7.28;4.90;;;;;;;29.43;30.83;100822.50;5095883;28;20031;-87
2022/08/14 11:55:20;;;;;;;6.47;5.00;;;;;;;29.52;30.32;100834.34;5095276;28;20024;-86
2022/08/14 11:57:46;;;;;;;6.47;5.00;;;;;;;29.39;30.21;100823.63;5078521;28;20031;-89
2022/08/14 12:00:15;;;;;;;5.70;4.90;;;;;;;29.28;30.44;100826.91;5095215;28;20136;-87
2022/08/14 12:02:57;;;;;;;6.50;5.05;;;;;;;29.27;30.03;100811.97;5099044;28;20024;-90
2022/08/14 12:05:30;;;;;;;5.10;4.60;;;;;;;29.44;29.22;100812.72;5095020;28;20016;-90
2022/08/14 12:07:58;;;;;;;6.07;4.35;;;;;;;29.56;28.92;100816.47;5094674;28;20030;-82
2022/08/14 12:10:23;;;;;;;5.28;4.28;;;;;;;29.51;28.82;100816.75;5077730;28;20502;-84
2022/08/14 12:12:53;;;;;;;4.88;4.22;;;;;;;29.47;29.58;100809.91;5094869;28;20107;-84
2022/08/14 12:15:28;;;;;;;5.18;4.25;;;;;;;29.40;29.68;100808.56;5078603;28;20122;-85
2022/08/14 12:17:53;;;;;;;6.38;4.60;;;;;;;29.47;29.85;100801.97;5094509;28;20395;-87
2022/08/14 12:20:28;;;;;;;9.20;4.20;;;;;;;29.29;29.79;100802.13;5061015;28;20032;-86
2022/08/14 12:22:54;;;;;;;7.78;4.20;;;;;;;29.40;28.40;100793.53;5095690;28;20055;-87
2022/08/14 12:25:22;;;;;;;6.15;4.13;;;;;;;29.50;27.20;100788.50;5077850;28;20036;-88
2022/08/14 12:27:51;;;;;;;5.75;3.97;;;;;;;29.51;27.38;100779.63;5095040;28;20038;-88
2022/08/14 12:30:25;;;;;;;4.13;3.75;;;;;;;29.43;26.98;100781.88;5094782;28;20020;-87
2022/08/14 12:32:51;;;;;;;4.05;3.65;;;;;;;29.60;27.35;100779.06;5094653;28;20054;-87
2022/08/14 12:35:16;;;;;;;5.57;3.38;;;;;;;29.79;26.33;100777.94;5093633;28;20616;-86
2022/08/14 12:37:51;;;;;;;4.32;3.25;;;;;;;29.63;26.20;100776.19;5077453;28;20111;-86
2022/08/14 12:40:21;;;;;;;8.55;3.65;;;;;;;29.65;26.15;100773.47;5094187;28;20111;-87
2022/08/14 12:42:48;;;;;;;5.82;3.90;;;;;;;29.71;26.14;100763.34;5094354;28;20539;-85
2022/08/14 12:45:13;;;;;;;4.40;3.28;;;;;;;29.76;26.15;100767.53;5060716;28;20089;-80
2022/08/14 12:47:42;;;;;;;4.82;3.40;;;;;;;29.73;25.75;100758.81;5060155;28;20480;-81
2022/08/14 12:50:09;;;;;;;7.20;3.78;;;;;;;29.79;27.99;100765.53;5093974;28;20097;-89
2022/08/14 12:52:40;;;;;;;3.92;3.30;;;;;;;29.61;27.09;100758.69;5093836;28;20036;-85
2022/08/14 12:55:09;;;;;;;5.82;3.58;;;;;;;29.44;33.07;100759.72;5076932;28;20123;-85
2022/08/14 12:57:43;;;;;;;4.53;4.10;;;;;;;29.07;34.07;100756.59;5094053;28;20020;-86
2022/08/14 13:00:14;;;;;;;7.82;4.05;;;;;;;28.79;38.12;100752.06;5093616;28;20475;-85
2022/08/14 13:02:40;;;;;;;6.07;3.72;;;;;;;28.50;38.31;100736.94;5093558;28;20501;-87
2022/08/14 13:05:11;;;;;;;5.30;3.22;;;;;;;28.54;37.03;100740.25;5060342;28;20123;-86
2022/08/14 13:07:39;;;;;;;6.72;3.22;;;;;;;28.43;33.67;100734.69;5093817;28;20035;-87
2022/08/14 13:10:06;;;;;;;3.47;3.17;;;;;;;28.47;32.51;100730.94;5093409;28;20157;-86
2022/08/14 13:12:32;;;;;;;7.93;3.72;;;;;;;28.35;36.04;100732.47;5077059;28;20032;-86
2022/08/14 13:14:58;;;;;;;3.83;3.22;;;;;;;28.26;33.20;100731.19;5076813;28;20024;-84
2022/08/14 13:17:25;;;;;;;3.40;3.10;;;;;;;28.53;29.58;100730.63;5093523;28;20104;-84
2022/08/14 13:19:56;;;;;;;5.20;3.30;;;;;;;28.56;31.34;100741.03;5093266;28;20238;-84
2022/08/14 13:22:26;;;;;;;3.60;3.30;;;;;;;28.41;34.05;100728.63;5076200;28;20131;-84
2022/08/14 13:24:53;;;;;;;4.13;3.38;;;;;;;28.47;30.01;100728.28;5094863;28;20024;-85
2022/08/14 13:27:23;;;;;;;3.38;3.08;;;;;;;28.55;31.69;100727.88;5093371;28;20032;-79
2022/08/14 13:29:51;;;;;;;3.78;3.20;;;;;;;28.49;31.11;100721.16;5093643;28;20024;-77
2022/08/14 13:32:18;;;;;;;3.72;3.38;;;;;;;28.49;30.39;100721.16;5099199;28;20448;-80
2022/08/14 13:34:47;;;;;;;8.07;3.60;;;;;;;28.69;28.19;100718.19;5083408;28;20028;-80
2022/08/14 13:37:17;;;;;;;5.22;3.20;;;;;;;28.81;28.46;100713.97;5097615;28;20099;-80
2022/08/14 13:39:53;;;;;;;4.25;3.50;;;;;;;28.70;29.74;100711.09;5096823;28;20020;-81
2022/08/14 13:42:20;;;;;;;5.80;3.92;;;;;;;28.82;30.38;100704.22;5095324;28;20024;-80
2022/08/14 13:44:53;;;;;;;5.32;3.90;;;;;;;28.82;30.44;100705.06;5076441;28;20052;-80
2022/08/14 13:47:27;;;;;;;5.00;4.00;;;;;;;28.74;32.50;100703.81;5092671;28;20103;-80
2022/08/14 13:49:52;;;;;;;4.85;3.80;;;;;;;28.79;29.10;100701.75;5092728;28;20030;-81
2022/08/14 13:52:21;;;;;;;5.93;3.75;;;;;;;28.89;31.10;100698.47;5058858;28;20032;-80
2022/08/14 13:54:49;;;;;;;4.40;3.85;;;;;;;28.84;34.16;100694.41;5093061;28;20028;-80
2022/08/14 13:57:18;;;;;;;4.45;3.90;;;;;;;28.82;31.77;100691.00;5094208;28;20020;-81
2022/08/14 13:59:49;;;;;;;5.45;4.05;;;;;;;29.01;30.32;100680.16;5076532;28;20024;-79
2022/08/14 14:02:17;;;;;;;6.88;3.85;;;;;;;28.88;32.66;100691.47;5092969;28;20072;-80
2022/08/14 14:04:45;;;;;;;4.85;3.90;;;;;;;28.76;34.29;100686.91;5092852;28;20035;-80
2022/08/14 14:07:13;;;;;;;4.18;3.78;;;;;;;28.86;32.24;100676.63;5092545;28;20035;-79
2022/08/14 14:09:44;;;;;;;5.57;4.97;;;;;;;29.05;31.72;100682.53;5092641;28;20020;-79
2022/08/14 14:12:13;;;;;;;8.48;5.55;;;;;;;29.12;30.46;100688.34;5092442;28;20089;-78
2022/08/14 14:14:42;;;;;;;9.45;4.85;;;;;;;29.07;31.21;100678.00;5093295;28;20039;-79
2022/08/14 14:17:12;;;;;;;7.25;4.22;;;;;;;29.26;29.06;100677.72;5092725;28;20020;-80
2022/08/14 14:19:45;;;;;;;5.40;4.18;;;;;;;29.42;28.67;100676.78;5092483;28;20039;-83
2022/08/14 14:22:14;;;;;;;4.68;4.00;;;;;;;29.17;30.10;100678.28;5092264;28;20047;-80
2022/08/14 14:24:45;;;;;;;6.05;4.10;;;;;;;29.33;29.33;100678.19;5092246;28;20031;-81
2022/08/14 14:27:13;;;;;;;7.57;4.78;;;;;;;29.32;29.60;100679.16;5093828;28;20027;-81
2022/08/14 14:29:51;;;;;;;9.82;4.60;;;;;;;29.17;30.48;100672.16;5092321;28;20387;-84
2022/08/14 14:32:17;;;;;;;6.45;4.03;;;;;;;29.22;29.43;100678.84;5092781;28;20032;-85
2022/08/14 14:34:46;;;;;;;8.70;3.75;;;;;;;29.28;30.11;100675.84;5076066;28;20032;-84
2022/08/14 14:37:20;;;;;;;4.43;3.40;;;;;;;29.21;29.41;100666.56;5076248;28;20043;-84
2022/08/14 14:39:52;;;;;;;7.03;4.00;;;;;;;29.06;30.43;100668.31;5077295;28;20043;-83
2022/08/14 14:42:33;;;;;;;6.45;3.60;;;;;;;29.15;28.86;100672.22;5076660;28;20028;-84
2022/08/14 14:45:23;;;;;;;;;;;;;;;;;;;;;
2022/08/14 14:48:30;;;;;;;5.13;3.90;;;;;;;29.06;29.50;100657.72;5097122;28;20099;-85
2022/08/14 14:51:00;;;;;;;8.18;3.95;;;;;;;29.07;29.91;100658.56;5079372;28;20036;-80
2022/08/14 14:53:47;;;;;;;4.25;3.80;;;;;;;29.10;29.40;100658.44;5092177;28;20089;-82
2022/08/14 14:56:41;;;;;;;7.22;3.75;;;;;;;29.17;28.77;100656.25;5068062;28;20037;-81
2022/08/14 14:59:22;;;;;;;4.15;3.72;;;;;;;29.17;28.27;100651.81;5095476;28;20024;-81
2022/08/14 15:02:00;;;;;;;4.60;3.72;;;;;;;29.20;28.61;100650.75;5096158;28;20479;-80
2022/08/14 15:04:25;;;;;;;5.45;3.97;;;;;;;28.96;30.15;100642.47;5095359;28;20039;-80
2022/08/14 15:06:51;;;;;;;5.45;3.95;;;;;;;29.10;30.55;100640.72;5078800;28;20024;-80
2022/08/14 15:09:17;;;;;;;6.20;4.20;;;;;;;29.14;29.56;100641.41;5078725;28;20093;-79
2022/08/14 15:11:43;;;;;;;5.43;4.07;;;;;;;29.16;29.75;100644.81;5078586;28;20028;-80
2022/08/14 15:14:09;;;;;;;5.30;4.78;;;;;;;29.13;29.94;100643.19;5095593;28;20073;-80
2022/08/14 15:16:37;;;;;;;7.20;4.63;;;;;;;29.16;31.46;100642.16;5095819;28;20024;-81
2022/08/14 15:19:04;;;;;;;8.30;5.00;;;;;;;29.30;30.48;100641.28;5078918;28;20028;-82
2022/08/14 15:21:30;;;;;;;5.90;4.60;;;;;;;29.35;29.52;100628.59;5078153;28;20044;-81
2022/08/14 15:23:57;;;;;;;5.63;4.45;;;;;;;29.39;29.17;100624.81;5061946;28;20122;-81
2022/08/14 15:26:24;;;;;;;5.97;4.55;;;;;;;29.51;28.94;100633.81;5079108;28;20032;-80
2022/08/14 15:28:50;;;;;;;6.00;4.03;;;;;;;29.44;29.28;100627.16;5095641;28;20051;-81
2022/08/14 15:31:17;;;;;;;8.45;4.53;;;;;;;29.45;29.87;100628.88;5078408;28;20078;-80
2022/08/14 15:36:27;;;;;;;7.38;5.07;;;;;;;29.32;30.45;100629.66;5096536;28;20069;-80
2022/08/14 15:38:54;;;;;;;7.38;5.03;;;;;;;29.29;31.64;100624.56;5095114;28;20020;-82
2022/08/14 15:41:20;;;;;;;7.47;5.30;;;;;;;28.93;36.34;100623.19;5061903;28;20468;-81
2022/08/14 15:43:45;;;;;;;8.27;5.40;;;;;;;28.84;39.56;100626.38;5095177;28;20024;-85
2022/08/14 15:46:11;;;;;;;5.55;4.57;;;;;;;28.75;35.87;100620.81;5078016;28;20035;-81
2022/08/14 15:48:36;;;;;;;7.45;5.50;;;;;;;28.51;36.25;100624.81;5078012;28;20110;-85
2022/08/14 15:51:02;;;;;;;8.90;5.60;;;;;;;28.26;36.58;100616.56;5078154;28;20036;-85
2022/08/14 15:53:27;;;;;;;5.80;5.20;;;;;;;28.08;36.93;100614.03;5095321;28;20051;-84
2022/08/14 15:55:55;;;;;;;8.60;5.10;;;;;;;28.18;35.67;100616.16;5078666;28;20081;-85
2022/08/14 15:58:24;;;;;;;8.88;5.03;;;;;;;28.09;34.68;100614.88;5078241;28;20042;-84
2022/08/14 16:03:35;;;;;;;8.80;6.45;;;;;;;28.14;36.56;100610.22;5096789;28;20054;-85
2022/08/14 16:06:01;;;;;;;10.20;6.00;;;;;;;28.05;36.60;100605.47;5090646;28;20023;-85
2022/08/14 16:08:27;;;;;;;7.93;6.28;;;;;;;28.04;37.59;100607.22;5092242;28;20024;-84
2022/08/14 16:10:52;;;;;;;10.50;6.53;;;;;;;28.05;36.78;100614.25;5090812;28;20080;-83
2022/08/14 16:13:17;;;;;;;6.35;5.68;;;;;;;27.99;37.31;100611.94;5070750;28;20032;-84
2022/08/14 16:15:43;;;;;;;6.18;5.57;;;;;;;28.10;36.35;100600.75;5080219;28;20472;-83
2022/08/14 16:18:18;;;;;;;9.57;5.60;;;;;;;28.11;36.68;100610.38;5069559;28;20008;-83
2022/08/14 16:20:55;;;;;;;8.30;5.15;;;;;;;28.05;36.22;100606.31;5108196;28;20092;-83
2022/08/14 16:23:25;;;;;;;7.30;6.00;;;;;;;27.82;39.51;100604.91;5105677;28;20055;-83
2022/08/14 16:25:51;;;;;;;7.30;5.70;;;;;;;27.95;37.41;100607.75;5085621;28;20081;-84
2022/08/14 16:28:17;;;;;;;8.73;5.50;;;;;;;28.17;35.79;100602.09;5063218;28;20032;-83
2022/08/14 16:30:47;;;;;;;7.80;6.00;;;;;;;27.95;38.32;100607.75;5095117;28;20032;-85
2022/08/14 16:33:14;;;;;;;6.38;5.78;;;;;;;27.81;38.49;100608.50;5078383;28;20494;-83
2022/08/14 16:35:41;;;;;;;10.13;5.90;;;;;;;28.12;36.46;100601.50;5094429;28;20031;-83
2022/08/14 16:38:07;;;;;;;6.43;5.53;;;;;;;28.18;35.77;100600.28;5094417;28;20103;-84
2022/08/14 16:40:32;;;;;;;6.55;5.65;;;;;;;27.99;37.56;100598.72;5094338;28;20039;-83
2022/08/14 16:43:00;;;;;;;7.97;5.90;;;;;;;28.23;35.46;100593.78;5077412;28;20386;-83
2022/08/14 16:45:26;;;;;;;7.50;6.20;;;;;;;28.23;35.87;100591.16;5094176;28;20537;-83
2022/08/14 16:47:52;;;;;;;6.85;6.03;;;;;;;28.07;38.33;100607.06;5077558;28;20039;-82
2022/08/14 16:50:17;;;;;;;7.35;5.97;;;;;;;28.02;37.48;100598.53;5077109;28;20024;-83
2022/08/14 16:52:43;;;;;;;7.72;5.90;;;;;;;27.94;38.89;100597.25;5077117;28;20055;-86
2022/08/14 16:55:10;;;;;;;7.95;5.38;;;;;;;28.06;36.19;100585.97;5094359;28;20031;-86
2022/08/14 16:57:50;;;;;;;6.47;5.40;;;;;;;28.10;35.76;100580.44;5061055;28;20033;-85
2022/08/14 17:00:32;;;;;;;7.40;5.43;;;;;;;28.01;38.42;100586.25;5094301;28;20090;-86
2022/08/14 17:03:06;;;;;;;9.77;5.57;;;;;;;28.12;36.61;100582.16;5094447;28;20024;-85
2022/08/14 17:05:38;;;;;;;7.20;5.90;;;;;;;27.97;37.57;100589.16;5095289;28;20099;-89
2022/08/14 17:08:03;;;;;;;9.23;5.63;;;;;;;28.13;35.43;100581.19;5094057;28;20039;-86
2022/08/14 17:10:34;;;;;;;7.15;4.90;;;;;;;28.00;37.03;100571.31;5094014;28;20024;-85
2022/08/14 17:13:26;;;;;;;6.50;5.18;;;;;;;28.07;36.07;100571.84;5094124;28;20429;-86
2022/08/14 17:16:15;;;;;;;5.63;5.00;;;;;;;28.03;36.74;100570.31;5093807;28;20039;-82
2022/08/14 17:18:42;;;;;;;7.45;4.80;;;;;;;28.09;34.81;100572.56;5093201;28;20043;-81
2022/08/14 17:21:25;;;;;;;6.38;5.10;;;;;;;28.12;34.28;100571.56;5093971;28;20048;-81
2022/08/14 17:24:03;;;;;;;6.32;4.63;;;;;;;28.02;35.24;100566.78;5094540;28;20387;-81
2022/08/14 17:26:51;;;;;;;12.05;5.20;;;;;;;28.05;36.54;100561.34;5093483;28;20112;-85
2022/08/14 17:29:25;;;;;;;5.93;4.82;;;;;;;27.92;35.93;100565.63;5093267;28;20020;-86
2022/08/14 17:31:59;;;;;;;7.78;5.25;;;;;;;27.98;35.79;100565.28;5094571;28;20387;-85
2022/08/14 17:34:43;;;;;;;7.28;5.35;;;;;;;27.96;35.99;100571.56;5093324;28;20501;-85
2022/08/14 17:37:21;;;;;;;10.90;5.28;;;;;;;27.86;36.88;100561.53;5078990;28;20024;-85
2022/08/14 17:40:09;;;;;;;8.23;4.95;;;;;;;27.94;35.05;100562.88;5078175;28;20035;-84
2022/08/14 17:42:44;;;;;;;7.22;5.00;;;;;;;27.83;36.87;100559.03;5093267;28;20042;-84
2022/08/14 17:45:10;;;;;;;5.97;5.25;;;;;;;27.93;36.06;100555.91;5093929;28;20081;-85
2022/08/14 17:47:36;;;;;;;5.60;4.95;;;;;;;27.99;35.05;100553.75;5093413;28;20032;-84
2022/08/14 17:50:02;;;;;;;7.47;5.57;;;;;;;28.01;35.27;100557.16;5076530;28;20088;-84
2022/08/14 17:52:32;;;;;;;8.45;5.10;;;;;;;27.98;35.09;100549.41;5093478;28;20039;-83
2022/08/14 17:54:59;;;;;;;5.65;5.05;;;;;;;27.91;35.73;100558.63;5093435;28;20563;-86
2022/08/14 17:57:29;;;;;;;7.18;5.28;;;;;;;27.93;35.02;100554.09;5093418;28;20032;-86
2022/08/14 17:59:55;;;;;;;7.75;5.63;;;;;;;27.96;36.52;100553.94;5093978;28;20533;-86
2022/08/14 18:02:27;;;;;;;6.78;5.20;;;;;;;27.96;34.40;100553.94;5093884;28;20431;-86
2022/08/14 18:04:59;;;;;;;6.15;4.95;;;;;;;27.89;34.90;100556.09;5095022;28;20062;-85
2022/08/14 18:07:26;;;;;;;6.53;4.95;;;;;;;27.80;34.87;100558.34;5076185;28;20028;-84
2022/08/14 18:09:54;;;;;;;7.25;5.03;;;;;;;27.79;34.81;100560.16;5076297;28;20381;-85
2022/08/14 18:12:21;;;;;;;10.00;5.05;;;;;;;27.77;34.45;100555.91;5094263;28;20097;-85
2022/08/14 18:14:49;;;;;;;8.60;5.05;;;;;;;27.76;34.81;100555.03;5059252;28;20039;-85
2022/08/14 18:17:17;;;;;;;6.65;5.15;;;;;;;27.75;34.79;100560.41;5076415;28;20028;-86
2022/08/14 18:19:43;;;;;;;5.78;5.10;;;;;;;27.70;34.89;100560.69;5092336;28;20024;-85
2022/08/14 18:22:10;;;;;;;6.72;5.03;;;;;;;27.68;34.96;100562.56;5059578;28;20488;-84
2022/08/14 18:24:38;;;;;;;8.25;5.53;;;;;;;27.67;35.92;100553.75;5076022;28;20537;-85
2022/08/14 18:27:10;;;;;;;5.95;5.35;;;;;;;27.71;35.07;100557.09;5093900;28;20031;-85
2022/08/14 18:29:48;;;;;;;7.75;5.38;;;;;;;27.59;34.90;100561.28;5092949;28;20038;-85
2022/08/14 18:32:25;;;;;;;8.30;5.38;;;;;;;27.62;36.05;100560.25;5094210;28;20032;-85
2022/08/14 18:35:00;;;;;;;9.98;5.25;;;;;;;27.64;34.34;100553.09;5096873;28;20077;-85
2022/08/14 18:37:26;;;;;;;6.78;5.55;;;;;;;27.60;34.63;100556.84;5096723;28;20028;-82
2022/08/14 18:39:52;;;;;;;13.93;5.15;;;;;;;27.61;36.66;100562.06;5097796;28;20440;-82
2022/08/14 18:42:17;;;;;;;10.25;5.57;;;;;;;27.42;37.76;100562.22;5104085;28;20047;-83
2022/08/14 18:44:48;;;;;;;8.73;5.70;;;;;;;27.08;38.39;100560.53;5107131;28;20047;-88
2022/08/14 18:47:14;;;;;;;9.63;5.60;;;;;;;26.63;43.06;100559.38;5102183;28;20024;-82
2022/08/14 18:49:51;;;;;;;9.20;6.13;;;;;;;26.42;44.19;100559.53;5098405;28;20164;-83
2022/08/14 18:52:21;;;;;;;6.07;5.35;;;;;;;26.53;41.38;100556.34;5096884;28;20507;-84
2022/08/14 18:54:47;;;;;;;13.68;5.50;;;;;;;26.35;43.48;100562.56;5096149;28;20097;-84
2022/08/14 18:57:13;;;;;;;7.68;5.50;;;;;;;26.26;43.27;100563.88;5079241;28;20024;-83
2022/08/14 18:59:41;;;;;;;6.70;5.70;;;;;;;26.21;42.84;100561.47;5096397;28;20031;-84
2022/08/14 19:02:28;;;;;;;8.77;6.18;;;;;;;26.34;44.19;100555.59;5097117;28;20023;-84
2022/08/14 19:04:55;;;;;;;7.28;6.32;;;;;;;26.38;41.55;100562.41;5095587;28;20035;-84
2022/08/14 19:07:21;;;;;;;8.40;6.65;;;;;;;26.43;41.39;100566.50;5078788;28;20542;-85
2022/08/14 19:09:52;;;;;;;10.05;6.85;;;;;;;26.33;42.34;100570.56;5079261;28;20032;-85
2022/08/14 19:12:55;;;;;;;8.27;6.47;;;;;;;26.19;44.76;100565.97;5095642;28;20047;-84
2022/08/14 19:15:30;;;;;;;11.65;6.90;;;;;;;26.25;42.84;100563.03;5095695;28;20471;-84
2022/08/14 19:17:56;;;;;;;9.77;6.28;;;;;;;26.32;41.71;100563.56;5096130;28;20472;-84
2022/08/14 19:20:22;;;;;;;10.15;6.43;;;;;;;26.16;43.01;100563.50;5080009;28;20387;-83
2022/08/14 19:22:53;;;;;;;10.02;7.07;;;;;;;26.17;43.18;100561.72;5095593;28;20619;-83
2022/08/14 19:25:46;;;;;;;8.95;6.28;;;;;;;26.11;43.77;100565.53;5095773;28;20059;-83
2022/08/14 19:28:17;;;;;;;9.87;6.90;;;;;;;26.11;43.57;100559.38;5093622;28;20506;-83
2022/08/14 19:30:43;;;;;;;10.85;6.50;;;;;;;26.05;46.75;100564.03;5095490;28;20046;-84
2022/08/14 19:33:44;;;;;;;9.77;6.75;;;;;;;26.11;42.96;100562.00;5095654;28;20357;-83
2022/08/14 19:36:12;;;;;;;10.30;6.43;;;;;;;25.96;44.25;100559.22;5097312;28;20376;-84
2022/08/14 19:38:43;;;;;;;7.53;6.32;;;;;;;25.95;43.80;100562.75;5095476;28;20092;-84
2022/08/14 19:41:18;;;;;;;7.63;6.80;;;;;;;25.88;44.98;100564.00;5095683;28;20471;-84
2022/08/14 19:43:45;;;;;;;11.05;6.43;;;;;;;25.90;45.01;100561.31;5096130;28;20032;-84
2022/08/14 19:46:11;;;;;;;7.75;6.95;;;;;;;25.93;44.08;100562.00;5095338;28;20030;-83
2022/08/14 19:48:37;;;;;;;6.80;6.18;;;;;;;25.96;44.31;100561.00;5078680;28;20028;-83
2022/08/14 19:51:06;;;;;;;8.10;6.70;;;;;;;25.85;44.67;100553.59;5095068;28;20035;-82
2022/08/14 19:53:32;;;;;;;9.52;6.25;;;;;;;25.93;45.25;100558.50;5078821;28;20028;-83
2022/08/14 19:56:00;;;;;;;12.18;6.30;;;;;;;25.84;45.03;100563.25;5095252;28;20046;-83
2022/08/14 19:58:40;;;;;;;7.47;6.57;;;;;;;25.89;45.43;100557.78;5078365;28;20024;-83
2022/08/14 20:01:06;;;;;;;8.95;6.90;;;;;;;25.83;45.87;100555.44;5096234;28;20012;-84
2022/08/14 20:03:42;;;;;;;8.02;6.30;;;;;;;25.92;45.16;100562.09;5094899;28;20028;-83
2022/08/14 20:06:09;;;;;;;8.32;6.72;;;;;;;25.92;48.27;100557.66;5094789;28;20024;-84
2022/08/14 20:08:36;;;;;;;7.47;6.70;;;;;;;25.77;47.66;100561.84;5094816;28;20387;-84
2022/08/14 20:11:03;;;;;;;9.00;6.80;;;;;;;25.83;47.52;100561.56;5094983;28;20039;-83
2022/08/14 20:13:30;;;;;;;11.07;7.03;;;;;;;25.90;48.34;100553.41;5094529;28;20081;-83
2022/08/14 20:15:56;;;;;;;9.50;6.90;;;;;;;25.93;47.85;100555.88;5077741;28;20027;-83
2022/08/14 20:18:26;;;;;;;9.27;7.22;;;;;;;25.90;47.56;100554.25;5094427;28;20028;-85
2022/08/14 20:20:52;;;;;;;8.23;6.72;;;;;;;25.95;48.42;100560.13;5094476;28;20024;-89
2022/08/14 20:23:18;;;;;;;7.40;6.50;;;;;;;26.17;49.59;100551.16;5095060;28;20024;-88
2022/08/14 20:25:48;;;;;;;8.40;6.63;;;;;;;26.29;50.62;100549.69;5094579;28;20047;-85
2022/08/14 20:28:16;;;;;;;9.30;7.10;;;;;;;26.30;51.79;100551.41;5094923;28;20020;-87
2022/08/14 20:30:43;;;;;;;8.25;6.80;;;;;;;26.32;51.39;100553.03;5094369;28;20027;-84
2022/08/14 20:33:10;;;;;;;7.30;6.60;;;;;;;26.35;51.09;100547.59;5094450;28;20164;-85
2022/08/14 20:35:42;;;;;;;8.45;6.63;;;;;;;26.39;50.97;100556.19;5095209;28;20126;-83
2022/08/14 20:38:15;;;;;;;7.40;6.70;;;;;;;26.46;48.83;100550.53;5093932;28;20077;-82
2022/08/14 20:40:43;;;;;;;7.78;6.82;;;;;;;26.48;50.00;100543.41;5093958;28;20049;-81
2022/08/14 20:46:23;;;;;;;9.73;7.18;;;;;;;26.52;51.07;100552.00;5095764;28;20047;-82
2022/08/14 20:49:15;;;;;;;8.40;7.70;;;;;;;26.54;49.00;100552.78;5094184;28;20471;-83
2022/08/14 20:51:51;;;;;;;10.23;7.28;;;;;;;26.51;50.54;100557.38;5072970;28;20553;-83
2022/08/14 20:54:34;;;;;;;9.52;7.15;;;;;;;26.50;50.00;100547.72;5095035;28;20137;-83
2022/08/14 20:57:13;;;;;;;9.18;7.43;;;;;;;26.50;51.08;100547.72;5078742;28;20039;-85
2022/08/14 20:59:45;;;;;;;8.65;6.82;;;;;;;26.53;49.36;100540.53;5093506;28;20039;-85
2022/08/14 21:02:28;;;;;;;8.10;7.40;;;;;;;26.55;50.27;100537.81;5093717;28;20069;-83
2022/08/14 21:04:56;;;;;;;8.93;7.32;;;;;;;26.52;50.93;100535.31;5093840;28;20035;-82
2022/08/14 21:07:24;;;;;;;9.27;6.97;;;;;;;26.55;50.13;100536.00;5093829;28;20522;-83
2022/08/14 21:10:03;;;;;;;7.45;6.75;;;;;;;26.58;49.06;100527.13;5093544;28;20503;-82
2022/08/14 21:12:28;;;;;;;9.57;6.93;;;;;;;26.63;48.79;100533.00;5093358;28;20077;-80
2022/08/14 21:14:54;;;;;;;9.48;6.50;;;;;;;26.68;48.22;100525.72;5076658;28;20126;-84
2022/08/14 21:17:21;;;;;;;7.50;6.78;;;;;;;26.77;47.75;100525.22;5059997;28;20028;-83
2022/08/14 21:19:49;;;;;;;7.72;6.85;;;;;;;26.80;47.74;100522.41;5093057;28;20109;-80
2022/08/14 21:22:15;;;;;;;8.30;7.28;;;;;;;26.86;46.14;100521.22;5092924;28;20044;-84
2022/08/14 21:24:41;;;;;;;9.13;6.65;;;;;;;26.91;46.67;100528.91;5076013;28;20055;-82
2022/08/14 21:27:09;;;;;;;10.93;6.95;;;;;;;26.92;46.38;100530.63;5094293;28;20106;-82
2022/08/14 21:29:36;;;;;;;10.93;6.85;;;;;;;26.93;46.32;100527.03;5092926;28;20015;-83
2022/08/14 21:32:02;;;;;;;15.60;7.38;;;;;;;26.97;46.26;100534.69;5075938;28;20115;-83
2022/08/14 21:34:28;;;;;;;10.25;6.90;;;;;;;26.97;46.43;100525.94;5093069;28;20035;-84
2022/08/14 21:36:55;;;;;;;10.80;6.50;;;;;;;26.97;46.66;100526.78;5076337;28;20483;-83
2022/08/14 21:39:22;;;;;;;14.23;7.22;;;;;;;26.96;47.23;100526.84;5092963;28;20060;-84
2022/08/14 21:41:49;;;;;;;10.30;7.50;;;;;;;26.96;47.12;100526.84;5092773;28;20027;-83
2022/08/14 21:44:15;;;;;;;10.95;7.20;;;;;;;26.96;47.09;100527.72;5094029;28;20028;-83
2022/08/14 21:46:45;;;;;;;9.55;6.80;;;;;;;26.98;47.45;100524.97;5059290;28;20028;-83
2022/08/14 21:49:30;;;;;;;9.50;7.38;;;;;;;26.98;46.93;100525.88;5092851;28;20032;-84
2022/08/14 21:52:03;;;;;;;10.60;6.45;;;;;;;26.99;46.82;100524.91;5075014;28;20101;-83
2022/08/14 21:54:40;;;;;;;11.68;6.70;;;;;;;26.98;46.86;100522.34;5092770;28;20110;-84
2022/08/14 21:57:09;;;;;;;15.10;6.50;;;;;;;26.99;46.92;100524.06;5092577;28;20040;-83
2022/08/14 21:59:35;;;;;;;7.53;6.60;;;;;;;26.99;46.78;100510.84;5093934;28;20028;-83
2022/08/14 22:02:03;;;;;;;11.30;6.30;;;;;;;27.00;47.60;100516.06;5092626;28;20109;-83
2022/08/14 22:04:32;;;;;;;8.68;6.68;;;;;;;27.00;47.00;100508.16;5092683;28;20074;-83
2022/08/14 22:06:58;;;;;;;8.35;6.78;;;;;;;26.99;47.91;100517.00;5092407;28;20024;-83
2022/08/14 22:09:26;;;;;;;7.80;6.72;;;;;;;27.00;47.09;100510.78;5075676;28;20395;-84
2022/08/14 22:11:51;;;;;;;8.25;6.93;;;;;;;27.02;47.08;100513.31;5059732;28;20024;-83
2022/08/14 22:14:19;;;;;;;8.60;6.28;;;;;;;27.03;47.61;100515.03;5075597;28;20097;-83